White Sulphur Springs, Montana
Current Conditions -  °F | °C
As of 1:53 AM on Friday 28 Nov 2014 (Local Time) from KHLN Reporting Station
Overcast Overcast  
Wind Chill: 51°   Ceiling: 6500
Heat Index: 51°   Visibility: 10mi
Dew Point: 31°   Wind: 3mph
Humidity: 46%   Direction: 40°NE
Pressure: 29.73"   Gusts: NA
Location:  46.55°N, 110.9°W
Report Text: KHLN 280853Z AUTO 04003KT 10SM OVC065 11/M01 A2973 RMK AO2 SLP071 T01061006 58009 $
Loading
Personal Weather Stations






























Interactive Weather Map New forecast layout! Learn more

10-Day Weather Forecast

Advertisements
Track Severe Weather on mobile